Main page
METAR-TAF:

METAR-TAF

Airports :

Ocala International Airport

Ocala, Florida, United States

latitude: 29-10N, longitude: 082-13W, elevation: 89 ft

Current weather observation

The report was made 1 hour and 1 minutes ago, at 20:51 UTC
Wind 9 mph from the East/Southeast
Temperature 84°F
Humidity 43%
Pressure 30.16 in. Hg
Visibility: 10 miles
Scattered clouds at a height of 6500 ft

METAR: KOCF 272051Z COR 12008KT 10SM SCT065 29/15 A3016 RMK AO2 SLP211 T02940150 56018 $

Time: 16:52 (21:52 UTC)


TAF: missing

Weather observations and forecasts of more than 4000 airports (METAR and TAF reports).

The available stations are represented by yellow and red dots on the map.

Hover mouse over dot to see the name of the station.

Then click to see weather observations and forecasts.

To change the map : click on the green buttons with a black cross to zoom in, on the green button with a dash to zoom out, or on the green arrows for adjacent maps.


METAR-TAF: